createdAt,value
2023-01-04T00:01:42.204Z,102040.53
2023-01-04T00:04:10.307Z,102117.22
2023-01-04T00:06:38.057Z,102097.53
2023-01-04T00:09:05.916Z,102114.25
2023-01-04T00:11:33.972Z,102106.34
2023-01-04T00:14:02.047Z,102071.41
2023-01-04T00:16:30.582Z,102013.09
2023-01-04T00:18:58.624Z,102070.59
2023-01-04T00:21:29.676Z,102100.75
2023-01-04T00:24:01.078Z,102102.41
2023-01-04T00:26:31.614Z,102074.38
2023-01-04T00:29:02.399Z,102096.97
2023-01-04T00:31:30.919Z,102100.75
2023-01-04T00:34:01.749Z,102067.44
2023-01-04T00:36:30.196Z,102104.44
2023-01-04T00:39:10.650Z,102046.53
2023-01-04T00:42:00.361Z,102054.94
2023-01-04T00:44:29.774Z,102029.56
2023-01-04T00:46:58.481Z,102079.31
2023-01-04T00:49:27.259Z,102083.78
2023-01-04T00:51:55.349Z,102008.06
2023-01-04T00:54:23.887Z,102041.38
2023-01-04T00:56:52.139Z,102029.25
2023-01-04T00:59:21.160Z,102068.13
2023-01-04T01:01:49.159Z,102058.34
2023-01-04T01:04:22.644Z,102066.38
2023-01-04T01:06:51.873Z,102074.69
2023-01-04T01:09:23.166Z,102001.00
2023-01-04T01:11:55.325Z,102059.50
2023-01-04T01:14:25.799Z,102049.25
2023-01-04T01:16:57.060Z,102063.19
2023-01-04T01:19:28.163Z,102061.06
2023-01-04T01:21:57.592Z,102085.31
2023-01-04T01:24:26.617Z,102001.00
2023-01-04T01:26:55.104Z,102089.22
2023-01-04T01:29:24.142Z,102075.78
2023-01-04T01:31:52.126Z,102028.19
2023-01-04T01:34:20.637Z,102068.13
2023-01-04T01:36:48.787Z,102091.56
2023-01-04T01:39:16.755Z,102015.50
2023-01-04T01:41:44.695Z,102075.34
2023-01-04T01:44:46.632Z,102088.13
2023-01-04T01:47:25.294Z,102029.00
2023-01-04T01:49:54.637Z,102042.75
2023-01-04T01:52:27.770Z,102079.56
2023-01-04T01:55:00.246Z,102076.84
2023-01-04T01:57:32.809Z,102100.06
2023-01-04T02:00:06.998Z,102067.19
2023-01-04T02:02:53.556Z,102087.56
2023-01-04T02:05:22.148Z,102100.06
2023-01-04T02:07:51.221Z,102071.25
2023-01-04T02:10:20.228Z,102102.53
2023-01-04T02:12:50.992Z,102081.09
2023-01-04T02:15:19.959Z,102091.72
2023-01-04T02:18:10.145Z,102107.41
2023-01-04T02:20:54.603Z,102112.03
2023-01-04T02:23:44.044Z,102101.16
2023-01-04T02:26:17.820Z,102114.75
2023-01-04T02:29:25.990Z,102077.97
2023-01-04T02:32:01.653Z,102100.13
2023-01-04T02:34:58.317Z,102061.94
2023-01-04T02:37:38.773Z,102114.88
2023-01-04T02:40:12.437Z,102112.16
2023-01-04T02:43:17.714Z,102094.72
2023-01-04T02:45:56.068Z,102073.66
2023-01-04T02:48:42.250Z,102084.69
2023-01-04T02:51:33.220Z,102101.19
2023-01-04T02:54:10.918Z,102086.47
2023-01-04T02:57:12.083Z,102003.91
2023-01-04T02:59:58.281Z,102099.56
2023-01-04T03:03:11.228Z,102094.94
2023-01-04T03:06:17.243Z,102068.53
2023-01-04T03:08:56.759Z,102093.41
2023-01-04T03:11:52.661Z,102016.47
2023-01-04T03:14:31.785Z,102051.97
2023-01-04T03:17:07.962Z,102051.25
2023-01-04T03:19:52.601Z,102078.22
2023-01-04T03:22:53.109Z,101995.88
2023-01-04T03:25:46.649Z,102070.59
2023-01-04T03:28:36.957Z,102073.06
2023-01-04T03:31:31.347Z,102037.56
2023-01-04T03:34:18.069Z,102040.22
2023-01-04T03:37:17.289Z,102068.84
2023-01-04T03:40:46.250Z,102068.28
2023-01-04T03:43:39.779Z,102069.91
2023-01-04T03:47:06.430Z,102062.69
2023-01-04T03:49:44.371Z,102067.88
2023-01-04T03:52:14.654Z,102066.78
2023-01-04T03:54:46.187Z,102051.97
2023-01-04T03:57:15.305Z,102057.72
2023-01-04T03:59:50.290Z,102067.25
2023-01-04T04:02:24.127Z,102069.41
2023-01-04T04:05:10.459Z,102004.97
2023-01-04T04:07:56.564Z,102068.69
2023-01-04T04:10:24.440Z,102065.81
2023-01-04T04:12:52.507Z,102064.50
2023-01-04T04:15:20.253Z,102069.69
2023-01-04T04:17:47.977Z,101993.94
2023-01-04T04:20:15.890Z,101984.56
2023-01-04T04:22:43.723Z,102052.13
2023-01-04T04:25:11.441Z,102006.94
2023-01-04T04:27:39.566Z,102029.53
2023-01-04T04:30:09.033Z,102049.56
2023-01-04T04:32:36.895Z,102065.31
2023-01-04T04:35:05.023Z,102047.53
2023-01-04T04:37:34.489Z,102018.00
2023-01-04T04:40:02.491Z,102018.00
2023-01-04T04:42:30.231Z,101991.63
2023-01-04T04:44:58.078Z,102023.91
2023-01-04T04:47:25.827Z,102022.50
2023-01-04T04:49:53.800Z,102057.88
2023-01-04T04:52:21.590Z,101999.66
2023-01-04T04:54:50.626Z,102054.19
2023-01-04T04:57:19.635Z,102073.16
2023-01-04T04:59:47.422Z,102072.53
2023-01-04T05:02:15.574Z,102066.03
2023-01-04T05:04:43.447Z,102052.13
2023-01-04T05:07:12.807Z,102039.44
2023-01-04T05:09:41.062Z,102061.69
2023-01-04T05:12:38.983Z,102051.06
2023-01-04T05:15:07.175Z,102065.81
2023-01-04T05:17:34.926Z,102073.72
2023-01-04T05:20:04.457Z,102080.06
2023-01-04T05:22:32.188Z,102064.13
2023-01-04T05:24:59.970Z,102075.13
2023-01-04T05:27:27.676Z,102065.00
2023-01-04T05:30:14.003Z,102076.69
2023-01-04T05:32:41.944Z,102050.44
2023-01-04T05:35:10.447Z,102044.75
2023-01-04T05:37:38.258Z,102077.31
2023-01-04T05:40:06.313Z,102028.56
2023-01-04T05:42:34.184Z,102055.19
2023-01-04T05:45:01.945Z,102055.19
2023-01-04T05:47:32.767Z,102091.81
2023-01-04T05:50:00.706Z,102052.13
2023-01-04T05:52:30.605Z,102098.34
2023-01-04T05:54:59.924Z,102084.81
2023-01-04T05:57:27.642Z,102077.25
2023-01-04T05:59:55.481Z,102074.06
2023-01-04T06:02:26.750Z,102021.91
2023-01-04T06:04:59.452Z,102052.22
2023-01-04T06:07:30.803Z,102081.34
2023-01-04T06:09:59.164Z,102100.47
2023-01-04T06:12:26.932Z,102107.00
2023-01-04T06:14:54.773Z,102033.63
2023-01-04T06:17:22.635Z,102103.06
2023-01-04T06:19:51.993Z,102087.88
2023-01-04T06:22:20.394Z,102042.28
2023-01-04T06:24:48.265Z,102032.72
2023-01-04T06:27:16.404Z,102105.84
2023-01-04T06:29:44.377Z,102115.25
2023-01-04T06:32:12.089Z,102071.31
2023-01-04T06:34:39.868Z,102019.63
2023-01-04T06:37:07.585Z,102116.25
2023-01-04T06:39:35.612Z,102113.13
2023-01-04T06:42:06.991Z,102123.19
2023-01-04T06:44:35.253Z,102095.31
2023-01-04T06:47:03.025Z,102091.66
2023-01-04T06:49:30.744Z,102131.97
2023-01-04T06:51:58.673Z,102128.19
2023-01-04T06:54:27.406Z,102056.69
2023-01-04T06:56:55.244Z,102124.81
2023-01-04T06:59:22.934Z,102097.59
2023-01-04T07:01:51.014Z,102139.66
2023-01-04T07:04:18.909Z,102137.19
2023-01-04T07:06:46.691Z,102148.38
2023-01-04T07:09:14.610Z,102142.94
2023-01-04T07:11:42.545Z,102132.22
2023-01-04T07:14:10.235Z,102149.53
2023-01-04T07:16:38.046Z,102123.34
2023-01-04T07:19:08.107Z,102100.41
2023-01-04T07:21:36.076Z,102110.88
2023-01-04T07:24:05.656Z,102132.56
2023-01-04T07:26:34.445Z,102151.59
2023-01-04T07:29:17.558Z,102157.63
2023-01-04T07:31:51.221Z,102162.31
2023-01-04T07:34:22.794Z,102161.72
2023-01-04T07:36:51.174Z,102149.28
2023-01-04T07:39:20.008Z,102171.13
2023-01-04T07:41:49.251Z,102168.66
2023-01-04T07:44:21.772Z,102129.91
2023-01-04T07:46:49.709Z,102096.13
2023-01-04T07:49:21.162Z,102143.09
2023-01-04T07:51:50.187Z,102176.66
2023-01-04T07:54:18.970Z,102111.53
2023-01-04T07:56:47.892Z,102167.09
2023-01-04T07:59:18.462Z,102186.63
2023-01-04T08:01:47.147Z,102157.44
2023-01-04T08:04:18.034Z,102195.03
2023-01-04T08:06:46.920Z,102142.53
2023-01-04T08:09:14.840Z,102126.34
2023-01-04T08:11:43.059Z,102148.34
2023-01-04T08:14:11.681Z,102148.69
2023-01-04T08:16:42.134Z,102153.66
2023-01-04T08:19:21.262Z,102197.69
2023-01-04T08:21:49.682Z,102206.91
2023-01-04T08:24:20.618Z,102205.84
2023-01-04T08:26:48.804Z,102171.84
2023-01-04T08:29:16.731Z,102190.22
2023-01-04T08:31:44.982Z,102211.59
2023-01-04T08:34:13.555Z,102190.09
2023-01-04T08:36:48.528Z,102214.59
2023-01-04T08:39:17.060Z,102229.00
2023-01-04T08:42:02.643Z,102225.38
2023-01-04T08:44:35.704Z,102225.88
2023-01-04T08:47:03.894Z,102229.09
2023-01-04T08:49:31.864Z,102237.50
2023-01-04T08:51:59.693Z,102240.19
2023-01-04T08:54:27.817Z,102206.88
2023-01-04T08:56:55.653Z,102198.38
2023-01-04T08:59:24.533Z,102210.88
2023-01-04T09:01:52.536Z,102234.09
2023-01-04T09:04:20.529Z,102168.78
2023-01-04T09:06:48.442Z,102244.16
2023-01-04T09:09:16.467Z,102228.66
2023-01-04T09:11:44.238Z,102211.69
2023-01-04T09:14:14.209Z,102250.13
2023-01-04T09:16:41.933Z,102248.78
2023-01-04T09:19:10.069Z,102126.22
2023-01-04T09:21:38.055Z,102227.22
2023-01-04T09:24:06.194Z,102256.72
2023-01-04T09:26:34.733Z,102220.50
2023-01-04T09:29:03.915Z,102238.00
2023-01-04T09:31:31.564Z,102267.56
2023-01-04T09:34:17.116Z,102264.00
2023-01-04T09:36:47.307Z,102239.41
2023-01-04T09:39:22.259Z,102280.34
2023-01-04T09:41:57.345Z,102270.22
2023-01-04T09:47:42.840Z,102263.50
2023-01-04T09:50:16.802Z,102277.78
2023-01-04T09:52:50.791Z,102276.13
2023-01-04T09:55:38.138Z,102280.03
2023-01-04T09:58:19.049Z,102279.44
2023-01-04T10:00:59.630Z,102227.34
2023-01-04T10:04:09.293Z,102254.72
2023-01-04T10:06:37.780Z,102225.88
2023-01-04T10:09:13.803Z,102240.47
2023-01-04T10:12:28.594Z,102282.81
2023-01-04T10:15:17.673Z,102278.38
2023-01-04T10:21:29.979Z,102277.38
2023-01-04T10:24:18.621Z,102266.50
2023-01-04T10:26:49.185Z,102244.00
2023-01-04T10:29:27.195Z,102193.22
2023-01-04T10:32:10.305Z,102268.13
2023-01-04T10:34:42.364Z,102245.53
2023-01-04T10:37:15.118Z,102272.75
2023-01-04T10:39:45.756Z,102269.47
2023-01-04T10:42:44.569Z,102261.56
2023-01-04T10:45:24.637Z,102250.31
2023-01-04T10:48:03.319Z,102269.47
2023-01-04T10:50:44.644Z,102180.69
2023-01-04T10:53:35.326Z,102255.59
2023-01-04T10:56:25.677Z,102254.31
2023-01-04T10:59:21.306Z,102216.09
2023-01-04T11:02:22.822Z,102253.78
2023-01-04T11:05:03.404Z,102218.56
2023-01-04T11:07:59.970Z,102255.69
2023-01-04T11:10:40.169Z,102167.16
2023-01-04T11:13:08.387Z,102200.28
2023-01-04T11:15:36.230Z,102223.53
2023-01-04T11:18:08.260Z,102215.44
2023-01-04T11:20:38.270Z,102215.53
2023-01-04T11:23:16.631Z,102214.19
2023-01-04T11:25:55.826Z,102228.47
2023-01-04T11:28:54.137Z,102231.03
2023-01-04T11:31:46.427Z,102228.56
2023-01-04T11:34:14.150Z,102225.84
2023-01-04T11:36:45.260Z,102157.97
2023-01-04T11:39:19.250Z,102213.09
2023-01-04T11:42:06.449Z,102216.66
2023-01-04T11:44:35.925Z,102176.50
2023-01-04T11:47:24.216Z,102191.91
2023-01-04T11:49:53.215Z,102195.53
2023-01-04T11:52:38.828Z,102208.72
2023-01-04T11:55:31.269Z,102142.38
2023-01-04T11:58:12.467Z,102171.56
2023-01-04T12:00:54.480Z,102168.31
2023-01-04T12:03:32.326Z,102174.94
2023-01-04T12:06:00.144Z,102170.06
2023-01-04T12:08:36.704Z,102178.03
2023-01-04T12:11:06.642Z,102131.91
2023-01-04T12:13:34.949Z,102170.97
2023-01-04T12:16:28.628Z,102175.38
2023-01-04T12:18:56.799Z,102169.09
2023-01-04T12:21:27.239Z,102174.91
2023-01-04T12:23:56.083Z,102184.97
2023-01-04T12:26:24.179Z,102144.22
2023-01-04T12:29:23.722Z,102159.38
2023-01-04T12:32:12.703Z,102122.59
2023-01-04T12:34:46.659Z,102130.59
2023-01-04T12:37:46.181Z,102156.47
2023-01-04T12:40:44.812Z,102151.59
2023-01-04T12:43:15.458Z,102145.88
2023-01-04T12:45:45.991Z,102146.69
2023-01-04T12:48:48.062Z,102143.50
2023-01-04T12:51:34.402Z,102144.06
2023-01-04T12:54:06.485Z,102142.16
2023-01-04T12:57:11.893Z,102137.53
2023-01-04T12:59:57.020Z,102135.88
2023-01-04T13:02:27.868Z,102123.56
2023-01-04T13:05:55.343Z,102082.16
2023-01-04T13:08:15.571Z,102062.94
2023-01-04T13:10:50.356Z,102115.09
2023-01-04T13:13:42.802Z,102070.13
2023-01-04T13:16:23.652Z,102075.69
2023-01-04T13:18:58.375Z,102096.28
2023-01-04T13:21:44.059Z,102099.28
2023-01-04T13:24:24.633Z,102050.53
2023-01-04T13:26:53.771Z,102090.59
2023-01-04T13:29:33.896Z,102094.94
2023-01-04T13:32:24.740Z,102088.69
2023-01-04T13:35:00.941Z,102091.78
2023-01-04T13:37:28.572Z,102091.28
2023-01-04T13:40:02.551Z,102079.53
2023-01-04T13:42:36.691Z,102084.75
2023-01-04T13:45:34.335Z,102043.03
2023-01-04T13:48:05.142Z,102069.38
2023-01-04T13:50:36.740Z,102084.75
2023-01-04T13:53:08.733Z,101985.50
2023-01-04T13:55:38.628Z,102073.91
2023-01-04T13:58:17.060Z,102037.13
2023-01-04T14:00:48.866Z,102050.28
2023-01-04T14:03:45.404Z,102064.59
2023-01-04T14:06:41.838Z,102055.47
2023-01-04T14:09:10.002Z,102059.66
2023-01-04T14:12:06.213Z,102059.41
2023-01-04T14:14:50.731Z,102068.41
2023-01-04T14:17:57.727Z,102058.59
2023-01-04T14:20:36.964Z,102055.88
2023-01-04T14:23:05.229Z,102001.53
2023-01-04T14:25:44.933Z,102061.56
2023-01-04T14:28:19.463Z,102069.16
2023-01-04T14:30:51.990Z,102057.16
2023-01-04T14:33:23.756Z,102068.88
2023-01-04T14:36:07.348Z,102065.88
2023-01-04T14:38:57.775Z,102062.00
2023-01-04T14:41:43.514Z,102046.91
2023-01-04T14:44:20.326Z,102061.19
2023-01-04T14:46:51.956Z,102066.06
2023-01-04T14:49:22.016Z,102010.63
2023-01-04T14:51:52.640Z,102070.44
2023-01-04T14:54:25.078Z,102065.25
2023-01-04T14:56:55.506Z,102062.28
2023-01-04T14:59:25.809Z,102032.66
2023-01-04T15:01:55.171Z,102064.44
2023-01-04T15:04:23.390Z,102048.00
2023-01-04T15:07:00.504Z,102052.09
2023-01-04T15:09:29.578Z,102021.03
2023-01-04T15:11:58.111Z,102051.19
2023-01-04T15:14:25.934Z,102019.94
2023-01-04T15:16:53.724Z,102051.19
2023-01-04T15:19:22.493Z,101966.28
2023-01-04T15:21:50.767Z,102026.31
2023-01-04T15:24:18.577Z,101998.63
2023-01-04T15:26:46.724Z,102026.03
2023-01-04T15:29:15.514Z,102034.75
2023-01-04T15:31:47.821Z,102007.03
2023-01-04T15:34:15.957Z,102061.53
2023-01-04T15:36:43.996Z,102038.47
2023-01-04T15:39:14.294Z,102071.41
2023-01-04T15:42:00.715Z,102049.19
2023-01-04T15:44:29.325Z,102063.16
2023-01-04T15:46:59.941Z,102029.94
2023-01-04T15:49:30.674Z,102076.25
2023-01-04T15:51:58.394Z,102049.69
2023-01-04T15:54:27.445Z,102034.28
2023-01-04T15:56:55.801Z,102068.63
2023-01-04T15:59:24.495Z,102049.38
2023-01-04T16:01:52.565Z,102054.56
2023-01-04T16:04:20.925Z,102014.81
2023-01-04T16:06:49.090Z,102048.72
2023-01-04T16:09:17.592Z,102063.53
2023-01-04T16:12:03.822Z,102047.09
2023-01-04T16:14:31.442Z,102072.88
2023-01-04T16:16:59.138Z,102067.41
2023-01-04T16:19:27.808Z,102058.78
2023-01-04T16:21:56.240Z,102066.78
2023-01-04T16:25:08.304Z,102036.34
2023-01-04T16:27:11.863Z,102058.78
2023-01-04T16:29:39.623Z,102036.59
2023-01-04T16:32:07.674Z,102079.06
2023-01-04T16:34:36.459Z,102063.97
2023-01-04T16:37:04.387Z,102051.25
2023-01-04T16:40:05.464Z,102037.59
2023-01-04T16:42:21.028Z,102073.81
2023-01-04T16:44:48.867Z,102052.16
2023-01-04T16:47:16.939Z,102073.31
2023-01-04T16:49:44.775Z,102079.25
2023-01-04T16:52:13.215Z,102077.09
2023-01-04T16:54:41.414Z,102053.16
2023-01-04T16:57:09.451Z,102076.53
2023-01-04T16:59:38.738Z,102073.19
2023-01-04T17:02:06.594Z,102047.41
2023-01-04T17:04:34.575Z,102059.22
2023-01-04T17:07:02.418Z,102061.94
2023-01-04T17:09:30.260Z,102069.63
2023-01-04T17:15:00.790Z,102074.38
2023-01-04T17:17:35.077Z,102064.56
2023-01-04T17:20:04.708Z,102042.34
2023-01-04T17:22:34.702Z,102056.59
2023-01-04T17:25:04.374Z,102062.97
2023-01-04T17:27:32.539Z,102051.41
2023-01-04T17:30:00.632Z,102036.38
2023-01-04T17:32:28.431Z,102007.56
2023-01-04T17:34:57.846Z,101994.13
2023-01-04T17:37:26.785Z,102052.91
2023-01-04T17:39:55.000Z,102041.09
2023-01-04T17:42:23.360Z,102055.81
2023-01-04T17:44:51.742Z,101973.56
2023-01-04T17:47:19.759Z,102049.06
2023-01-04T17:49:47.515Z,102034.19
2023-01-04T17:52:22.205Z,101982.84
2023-01-04T17:54:53.689Z,101988.81
2023-01-04T17:57:23.015Z,102058.78
2023-01-04T17:59:50.987Z,102000.34
2023-01-04T18:02:18.716Z,101990.97
2023-01-04T18:04:46.474Z,102038.16
2023-01-04T18:07:14.352Z,102071.03
2023-01-04T18:09:44.126Z,102041.44
2023-01-04T18:12:11.824Z,102068.03
2023-01-04T18:14:39.565Z,102064.50
2023-01-04T18:17:07.329Z,102066.13
2023-01-04T18:19:36.253Z,101995.34
2023-01-04T18:22:05.411Z,102069.50
2023-01-04T18:24:37.934Z,102031.16
2023-01-04T18:27:26.210Z,102058.63
2023-01-04T18:29:56.289Z,102069.41
2023-01-04T18:32:27.438Z,102064.50
2023-01-04T18:34:56.735Z,102068.09
2023-01-04T18:37:25.731Z,102068.94
2023-01-04T18:39:53.541Z,102032.41
2023-01-04T18:42:21.386Z,102029.69
2023-01-04T18:44:50.047Z,102071.66
2023-01-04T18:47:20.556Z,102068.69
2023-01-04T18:49:50.153Z,102062.06
2023-01-04T18:52:19.094Z,102077.59
2023-01-04T18:54:48.713Z,102031.53
2023-01-04T18:57:16.624Z,102053.69
2023-01-04T18:59:50.083Z,102079.22
2023-01-04T19:02:22.135Z,101990.28
2023-01-04T19:04:50.649Z,102055.59
2023-01-04T19:07:18.964Z,102068.69
2023-01-04T19:09:47.355Z,102090.09
2023-01-04T19:12:18.470Z,102091.41
2023-01-04T19:14:47.173Z,102092.22
2023-01-04T19:17:14.949Z,102048.69
2023-01-04T19:19:43.284Z,102053.53
2023-01-04T19:22:11.183Z,102064.25
2023-01-04T19:24:38.959Z,102095.72
2023-01-04T19:27:06.885Z,102081.97
2023-01-04T19:29:36.267Z,102092.44
2023-01-04T19:32:04.526Z,102095.22
2023-01-04T19:34:35.033Z,102093.91
2023-01-04T19:37:04.386Z,101956.75
2023-01-04T19:39:32.210Z,102077.72
2023-01-04T19:42:00.493Z,102094.56
2023-01-04T19:44:28.231Z,102088.63
2023-01-04T19:46:56.129Z,102094.34
2023-01-04T19:49:24.024Z,102068.28
2023-01-04T19:51:52.000Z,102044.81
2023-01-04T19:54:25.087Z,102103.81
2023-01-04T19:56:54.549Z,102099.97
2023-01-04T19:59:22.918Z,102107.63
2023-01-04T20:01:51.248Z,102018.22
2023-01-04T20:04:19.812Z,102083.81
2023-01-04T20:06:48.611Z,102100.84
2023-01-04T20:09:18.503Z,102108.19
2023-01-04T20:11:46.844Z,102078.75
2023-01-04T20:14:18.288Z,102039.75
2023-01-04T20:16:46.249Z,102028.75
2023-01-04T20:19:15.259Z,102101.00
2023-01-04T20:21:43.148Z,102088.38
2023-01-04T20:24:10.918Z,101998.53
2023-01-04T20:26:39.809Z,102066.56
2023-01-04T20:29:11.511Z,102105.63
2023-01-04T20:31:45.205Z,102091.91
2023-01-04T20:34:13.607Z,102076.53
2023-01-04T20:36:41.426Z,101887.59
2023-01-04T20:39:09.379Z,102042.03
2023-01-04T20:41:37.173Z,102111.66
2023-01-04T20:44:05.287Z,102101.34
2023-01-04T20:46:33.553Z,102069.94
2023-01-04T20:49:02.568Z,102072.34
2023-01-04T20:51:31.238Z,102111.06
2023-01-04T20:54:00.011Z,102084.19
2023-01-04T20:56:30.243Z,102106.19
2023-01-04T20:58:58.450Z,102075.13
2023-01-04T21:01:26.578Z,102088.91
2023-01-04T21:03:54.853Z,102082.03
2023-01-04T21:06:26.255Z,102057.94
2023-01-04T21:08:55.321Z,102051.84
2023-01-04T21:11:23.457Z,102106.66
2023-01-04T21:13:56.252Z,102090.16
2023-01-04T21:16:24.038Z,102046.63
2023-01-04T21:18:52.154Z,102117.69
2023-01-04T21:21:20.692Z,102109.44
2023-01-04T21:23:57.604Z,102117.94
2023-01-04T21:26:25.629Z,102123.31
2023-01-04T21:28:53.678Z,102053.59
2023-01-04T21:31:24.856Z,102112.41
2023-01-04T21:33:54.332Z,102086.47
2023-01-04T21:36:29.533Z,102120.53
2023-01-04T21:38:59.089Z,102129.44
2023-01-04T21:41:30.572Z,102115.81
2023-01-04T21:43:58.867Z,102078.00
2023-01-04T21:46:27.209Z,102101.69
2023-01-04T21:49:01.540Z,102110.22
2023-01-04T21:51:30.551Z,102109.38
2023-01-04T21:53:58.563Z,102023.28
2023-01-04T21:56:26.482Z,102058.94
2023-01-04T21:58:54.463Z,102089.16
2023-01-04T22:01:34.167Z,102107.09
2023-01-04T22:04:03.801Z,102066.34
2023-01-04T22:06:33.560Z,102095.69
2023-01-04T22:09:01.427Z,102076.66
2023-01-04T22:11:29.271Z,102101.91
2023-01-04T22:13:57.197Z,102055.44
2023-01-04T22:16:25.376Z,102072.31
2023-01-04T22:18:54.107Z,102057.72
2023-01-04T22:21:25.660Z,102088.78
2023-01-04T22:23:54.678Z,102090.38
2023-01-04T22:26:23.998Z,102052.94
2023-01-04T22:28:52.057Z,102104.38
2023-01-04T22:31:19.923Z,102056.31
2023-01-04T22:33:48.762Z,102076.84
2023-01-04T22:36:22.906Z,102063.91
2023-01-04T22:38:54.146Z,102111.44
2023-01-04T22:41:25.146Z,102114.75
2023-01-04T22:44:04.503Z,102055.50
2023-01-04T22:46:34.636Z,102042.84
2023-01-04T22:49:03.308Z,102109.28
2023-01-04T22:51:31.840Z,102060.94
2023-01-04T22:54:01.712Z,102076.84
2023-01-04T22:56:29.873Z,102087.00
2023-01-04T22:58:58.699Z,102087.31
2023-01-04T23:01:30.739Z,102092.66
2023-01-04T23:04:00.124Z,102108.34
2023-01-04T23:06:29.731Z,102080.34
2023-01-04T23:09:03.094Z,102098.03
2023-01-04T23:11:32.769Z,102064.47
2023-01-04T23:14:07.456Z,102085.38
2023-01-04T23:16:35.552Z,102054.91
2023-01-04T23:19:05.228Z,102099.66
2023-01-04T23:21:33.911Z,102099.09
2023-01-04T23:24:02.476Z,102093.91
2023-01-04T23:26:31.635Z,102086.56
2023-01-04T23:29:00.824Z,102090.38
2023-01-04T23:31:30.687Z,102034.91
2023-01-04T23:34:01.281Z,102044.78
2023-01-04T23:36:32.423Z,102077.47
2023-01-04T23:39:02.404Z,102052.28
2023-01-04T23:41:45.617Z,102082.44
2023-01-04T23:44:26.013Z,102067.53
2023-01-04T23:47:02.160Z,102056.66
2023-01-04T23:49:31.515Z,102089.03
2023-01-04T23:52:00.350Z,102085.50
2023-01-04T23:54:28.872Z,102093.66
2023-01-04T23:56:57.126Z,102081.94
2023-01-04T23:59:25.817Z,102048.81
